sensor_id;sensor_type;location;lat;lon;timestamp;P1;durP1;ratioP1;P2;durP2;ratioP2
22363;SDS011;11349;53.412;-1.328;2023-04-02T00:01:53;7.65;;;5.72;;
22363;SDS011;11349;53.412;-1.328;2023-04-02T00:04:22;9.88;;;5.43;;
22363;SDS011;11349;53.412;-1.328;2023-04-02T00:06:49;9.90;;;5.32;;
22363;SDS011;11349;53.412;-1.328;2023-04-02T00:09:24;10.68;;;6.40;;
22363;SDS011;11349;53.412;-1.328;2023-04-02T00:11:54;9.45;;;5.32;;
22363;SDS011;11349;53.412;-1.328;2023-04-02T00:16:48;8.75;;;5.75;;
22363;SDS011;11349;53.412;-1.328;2023-04-02T00:19:17;8.05;;;5.13;;
22363;SDS011;11349;53.412;-1.328;2023-04-02T00:21:48;8.70;;;5.00;;
22363;SDS011;11349;53.412;-1.328;2023-04-02T00:24:17;7.60;;;4.85;;
22363;SDS011;11349;53.412;-1.328;2023-04-02T00:26:45;7.10;;;4.40;;
22363;SDS011;11349;53.412;-1.328;2023-04-02T00:29:13;9.25;;;4.45;;
22363;SDS011;11349;53.412;-1.328;2023-04-02T00:31:41;7.00;;;4.15;;
22363;SDS011;11349;53.412;-1.328;2023-04-02T00:36:46;8.50;;;4.28;;
22363;SDS011;11349;53.412;-1.328;2023-04-02T00:39:15;8.57;;;4.45;;
22363;SDS011;11349;53.412;-1.328;2023-04-02T00:41:44;10.07;;;4.72;;
22363;SDS011;11349;53.412;-1.328;2023-04-02T00:44:13;6.70;;;4.38;;
22363;SDS011;11349;53.412;-1.328;2023-04-02T00:46:46;8.32;;;4.53;;
22363;SDS011;11349;53.412;-1.328;2023-04-02T00:52:15;9.45;;;5.85;;
22363;SDS011;11349;53.412;-1.328;2023-04-02T00:54:47;9.77;;;5.32;;
22363;SDS011;11349;53.412;-1.328;2023-04-02T00:57:19;7.10;;;4.70;;
22363;SDS011;11349;53.412;-1.328;2023-04-02T00:59:52;8.52;;;4.60;;
22363;SDS011;11349;53.412;-1.328;2023-04-02T01:02:42;8.02;;;4.78;;
22363;SDS011;11349;53.412;-1.328;2023-04-02T01:07:44;7.63;;;4.07;;
22363;SDS011;11349;53.412;-1.328;2023-04-02T01:10:34;8.50;;;3.65;;
22363;SDS011;11349;53.412;-1.328;2023-04-02T01:15:55;7.88;;;3.55;;
22363;SDS011;11349;53.412;-1.328;2023-04-02T01:24:17;7.85;;;3.33;;
22363;SDS011;11349;53.412;-1.328;2023-04-02T01:26:47;8.23;;;4.25;;
22363;SDS011;11349;53.412;-1.328;2023-04-02T01:29:22;7.80;;;3.75;;
22363;SDS011;11349;53.412;-1.328;2023-04-02T01:31:56;10.02;;;4.07;;
22363;SDS011;11349;53.412;-1.328;2023-04-02T01:34:26;9.80;;;3.88;;
22363;SDS011;11349;53.412;-1.328;2023-04-02T01:39:58;8.13;;;4.88;;
22363;SDS011;11349;53.412;-1.328;2023-04-02T01:45:18;7.53;;;4.78;;
22363;SDS011;11349;53.412;-1.328;2023-04-02T01:47:46;7.47;;;5.30;;
22363;SDS011;11349;53.412;-1.328;2023-04-02T01:50:30;6.50;;;5.18;;
22363;SDS011;11349;53.412;-1.328;2023-04-02T01:53:09;10.35;;;5.40;;
22363;SDS011;11349;53.412;-1.328;2023-04-02T01:58:24;9.20;;;4.82;;
22363;SDS011;11349;53.412;-1.328;2023-04-02T02:03:25;7.13;;;5.07;;
22363;SDS011;11349;53.412;-1.328;2023-04-02T02:05:51;8.70;;;5.20;;
22363;SDS011;11349;53.412;-1.328;2023-04-02T02:11:02;10.60;;;4.90;;
22363;SDS011;11349;53.412;-1.328;2023-04-02T02:13:28;9.25;;;5.63;;
22363;SDS011;11349;53.412;-1.328;2023-04-02T02:15:56;9.73;;;5.30;;
22363;SDS011;11349;53.412;-1.328;2023-04-02T02:18:24;11.15;;;5.70;;
22363;SDS011;11349;53.412;-1.328;2023-04-02T02:20:53;10.73;;;6.35;;
22363;SDS011;11349;53.412;-1.328;2023-04-02T02:23:21;10.55;;;5.45;;
22363;SDS011;11349;53.412;-1.328;2023-04-02T02:25:47;10.18;;;5.78;;
22363;SDS011;11349;53.412;-1.328;2023-04-02T02:30:54;8.88;;;5.43;;
22363;SDS011;11349;53.412;-1.328;2023-04-02T02:33:49;11.27;;;5.68;;
22363;SDS011;11349;53.412;-1.328;2023-04-02T02:36:22;13.05;;;5.78;;
22363;SDS011;11349;53.412;-1.328;2023-04-02T02:41:44;15.25;;;5.90;;
22363;SDS011;11349;53.412;-1.328;2023-04-02T02:44:19;9.45;;;4.80;;
22363;SDS011;11349;53.412;-1.328;2023-04-02T02:47:01;11.27;;;5.65;;
22363;SDS011;11349;53.412;-1.328;2023-04-02T02:49:48;9.52;;;5.38;;
22363;SDS011;11349;53.412;-1.328;2023-04-02T02:52:20;11.45;;;5.70;;
22363;SDS011;11349;53.412;-1.328;2023-04-02T02:54:51;14.52;;;5.75;;
22363;SDS011;11349;53.412;-1.328;2023-04-02T02:57:30;13.43;;;4.85;;
22363;SDS011;11349;53.412;-1.328;2023-04-02T03:00:00;11.00;;;4.38;;
22363;SDS011;11349;53.412;-1.328;2023-04-02T03:02:30;10.15;;;4.30;;
22363;SDS011;11349;53.412;-1.328;2023-04-02T03:05:04;10.13;;;4.57;;
22363;SDS011;11349;53.412;-1.328;2023-04-02T03:07:31;10.43;;;4.20;;
22363;SDS011;11349;53.412;-1.328;2023-04-02T03:12:41;12.45;;;4.65;;
22363;SDS011;11349;53.412;-1.328;2023-04-02T03:20:59;14.73;;;4.60;;
22363;SDS011;11349;53.412;-1.328;2023-04-02T03:23:31;16.42;;;4.97;;
22363;SDS011;11349;53.412;-1.328;2023-04-02T03:26:04;16.83;;;5.70;;
22363;SDS011;11349;53.412;-1.328;2023-04-02T03:28:41;18.35;;;4.10;;
22363;SDS011;11349;53.412;-1.328;2023-04-02T03:33:53;15.55;;;4.07;;
22363;SDS011;11349;53.412;-1.328;2023-04-02T03:41:31;11.38;;;3.53;;
22363;SDS011;11349;53.412;-1.328;2023-04-02T03:44:26;19.08;;;3.35;;
22363;SDS011;11349;53.412;-1.328;2023-04-02T03:47:03;16.23;;;4.32;;
22363;SDS011;11349;53.412;-1.328;2023-04-02T03:49:45;12.57;;;3.42;;
22363;SDS011;11349;53.412;-1.328;2023-04-02T03:52:13;17.52;;;3.67;;
22363;SDS011;11349;53.412;-1.328;2023-04-02T03:54:44;18.15;;;3.90;;
22363;SDS011;11349;53.412;-1.328;2023-04-02T03:58:12;17.73;;;3.80;;
22363;SDS011;11349;53.412;-1.328;2023-04-02T04:00:16;27.48;;;4.07;;
22363;SDS011;11349;53.412;-1.328;2023-04-02T04:02:54;16.55;;;3.30;;
22363;SDS011;11349;53.412;-1.328;2023-04-02T04:05:30;15.30;;;3.72;;
22363;SDS011;11349;53.412;-1.328;2023-04-02T04:08:11;15.85;;;3.30;;
22363;SDS011;11349;53.412;-1.328;2023-04-02T04:10:41;15.80;;;4.13;;
22363;SDS011;11349;53.412;-1.328;2023-04-02T04:13:14;14.38;;;3.55;;
22363;SDS011;11349;53.412;-1.328;2023-04-02T04:21:18;21.98;;;4.50;;
22363;SDS011;11349;53.412;-1.328;2023-04-02T04:23:54;14.50;;;3.15;;
22363;SDS011;11349;53.412;-1.328;2023-04-02T04:26:24;19.80;;;3.05;;
22363;SDS011;11349;53.412;-1.328;2023-04-02T04:29:15;17.25;;;3.85;;
22363;SDS011;11349;53.412;-1.328;2023-04-02T04:31:46;14.02;;;3.13;;
22363;SDS011;11349;53.412;-1.328;2023-04-02T04:34:18;22.73;;;4.75;;
22363;SDS011;11349;53.412;-1.328;2023-04-02T04:37:16;17.65;;;3.55;;
22363;SDS011;11349;53.412;-1.328;2023-04-02T04:40:04;22.70;;;3.70;;
22363;SDS011;11349;53.412;-1.328;2023-04-02T04:42:35;13.73;;;2.80;;
22363;SDS011;11349;53.412;-1.328;2023-04-02T04:47:58;12.93;;;3.05;;
22363;SDS011;11349;53.412;-1.328;2023-04-02T04:50:48;19.83;;;4.07;;
22363;SDS011;11349;53.412;-1.328;2023-04-02T04:53:22;16.15;;;3.08;;
22363;SDS011;11349;53.412;-1.328;2023-04-02T04:55:52;23.13;;;3.55;;
22363;SDS011;11349;53.412;-1.328;2023-04-02T04:58:31;20.30;;;3.47;;
22363;SDS011;11349;53.412;-1.328;2023-04-02T05:09:39;17.42;;;3.95;;
22363;SDS011;11349;53.412;-1.328;2023-04-02T05:14:52;18.15;;;3.40;;
22363;SDS011;11349;53.412;-1.328;2023-04-02T05:17:24;17.02;;;3.45;;
22363;SDS011;11349;53.412;-1.328;2023-04-02T05:20:13;20.67;;;3.65;;
22363;SDS011;11349;53.412;-1.328;2023-04-02T05:22:49;19.40;;;3.40;;
22363;SDS011;11349;53.412;-1.328;2023-04-02T05:27:55;17.85;;;3.10;;
22363;SDS011;11349;53.412;-1.328;2023-04-02T05:32:53;15.73;;;3.10;;
22363;SDS011;11349;53.412;-1.328;2023-04-02T05:35:24;16.08;;;3.53;;
22363;SDS011;11349;53.412;-1.328;2023-04-02T05:37:55;20.27;;;3.30;;
22363;SDS011;11349;53.412;-1.328;2023-04-02T05:40:23;18.35;;;3.58;;
22363;SDS011;11349;53.412;-1.328;2023-04-02T05:42:56;18.50;;;3.45;;
22363;SDS011;11349;53.412;-1.328;2023-04-02T05:47:58;17.40;;;3.53;;
22363;SDS011;11349;53.412;-1.328;2023-04-02T05:50:29;15.18;;;2.92;;
22363;SDS011;11349;53.412;-1.328;2023-04-02T05:53:16;14.85;;;3.33;;
22363;SDS011;11349;53.412;-1.328;2023-04-02T05:58:28;15.07;;;2.95;;
22363;SDS011;11349;53.412;-1.328;2023-04-02T06:03:39;21.48;;;4.07;;
22363;SDS011;11349;53.412;-1.328;2023-04-02T06:06:20;18.85;;;3.05;;
22363;SDS011;11349;53.412;-1.328;2023-04-02T06:09:08;13.48;;;3.70;;
22363;SDS011;11349;53.412;-1.328;2023-04-02T06:12:03;19.02;;;3.53;;
22363;SDS011;11349;53.412;-1.328;2023-04-02T06:14:50;20.65;;;3.60;;
22363;SDS011;11349;53.412;-1.328;2023-04-02T06:17:17;15.65;;;2.90;;
22363;SDS011;11349;53.412;-1.328;2023-04-02T06:19:44;24.80;;;4.05;;
22363;SDS011;11349;53.412;-1.328;2023-04-02T06:24:43;18.98;;;4.50;;
22363;SDS011;11349;53.412;-1.328;2023-04-02T06:27:11;11.63;;;2.45;;
22363;SDS011;11349;53.412;-1.328;2023-04-02T06:29:43;17.42;;;3.22;;
22363;SDS011;11349;53.412;-1.328;2023-04-02T06:32:11;19.52;;;3.58;;
22363;SDS011;11349;53.412;-1.328;2023-04-02T06:34:38;13.25;;;3.20;;
22363;SDS011;11349;53.412;-1.328;2023-04-02T06:37:14;15.07;;;2.60;;
22363;SDS011;11349;53.412;-1.328;2023-04-02T06:39:41;11.80;;;3.47;;
22363;SDS011;11349;53.412;-1.328;2023-04-02T06:42:26;16.15;;;3.10;;
22363;SDS011;11349;53.412;-1.328;2023-04-02T06:44:59;13.07;;;3.60;;
22363;SDS011;11349;53.412;-1.328;2023-04-02T06:47:28;20.65;;;3.70;;
22363;SDS011;11349;53.412;-1.328;2023-04-02T06:52:57;21.80;;;3.85;;
22363;SDS011;11349;53.412;-1.328;2023-04-02T06:56:16;12.38;;;2.72;;
22363;SDS011;11349;53.412;-1.328;2023-04-02T06:58:36;17.13;;;5.40;;
22363;SDS011;11349;53.412;-1.328;2023-04-02T07:01:02;9.77;;;2.72;;
22363;SDS011;11349;53.412;-1.328;2023-04-02T07:03:29;11.23;;;2.67;;
22363;SDS011;11349;53.412;-1.328;2023-04-02T07:05:56;21.02;;;3.50;;
22363;SDS011;11349;53.412;-1.328;2023-04-02T07:08:23;10.10;;;3.10;;
22363;SDS011;11349;53.412;-1.328;2023-04-02T07:10:48;16.40;;;2.80;;
22363;SDS011;11349;53.412;-1.328;2023-04-02T07:13:15;17.42;;;3.38;;
22363;SDS011;11349;53.412;-1.328;2023-04-02T07:15:46;14.30;;;2.83;;
22363;SDS011;11349;53.412;-1.328;2023-04-02T07:18:28;18.33;;;3.15;;
22363;SDS011;11349;53.412;-1.328;2023-04-02T07:20:55;12.70;;;2.60;;
22363;SDS011;11349;53.412;-1.328;2023-04-02T07:23:21;19.58;;;2.70;;
22363;SDS011;11349;53.412;-1.328;2023-04-02T07:25:48;17.75;;;2.88;;
22363;SDS011;11349;53.412;-1.328;2023-04-02T07:28:14;12.48;;;2.63;;
22363;SDS011;11349;53.412;-1.328;2023-04-02T07:30:41;16.33;;;2.70;;
22363;SDS011;11349;53.412;-1.328;2023-04-02T07:33:11;11.68;;;2.92;;
22363;SDS011;11349;53.412;-1.328;2023-04-02T07:35:42;18.33;;;3.78;;
22363;SDS011;11349;53.412;-1.328;2023-04-02T07:38:08;12.48;;;3.33;;
22363;SDS011;11349;53.412;-1.328;2023-04-02T07:40:34;16.85;;;2.83;;
22363;SDS011;11349;53.412;-1.328;2023-04-02T07:43:00;15.43;;;2.70;;
22363;SDS011;11349;53.412;-1.328;2023-04-02T07:45:26;13.48;;;3.08;;
22363;SDS011;11349;53.412;-1.328;2023-04-02T07:47:52;20.88;;;3.75;;
22363;SDS011;11349;53.412;-1.328;2023-04-02T07:50:18;12.85;;;2.30;;
22363;SDS011;11349;53.412;-1.328;2023-04-02T07:52:44;16.27;;;2.60;;
22363;SDS011;11349;53.412;-1.328;2023-04-02T07:55:10;10.98;;;2.58;;
22363;SDS011;11349;53.412;-1.328;2023-04-02T07:57:39;12.57;;;3.47;;
22363;SDS011;11349;53.412;-1.328;2023-04-02T08:00:15;13.13;;;2.60;;
22363;SDS011;11349;53.412;-1.328;2023-04-02T08:02:42;14.60;;;2.67;;
22363;SDS011;11349;53.412;-1.328;2023-04-02T08:05:08;14.75;;;2.75;;
22363;SDS011;11349;53.412;-1.328;2023-04-02T08:07:34;9.07;;;2.25;;
22363;SDS011;11349;53.412;-1.328;2023-04-02T08:10:02;14.07;;;2.47;;
22363;SDS011;11349;53.412;-1.328;2023-04-02T08:12:28;8.32;;;2.47;;
22363;SDS011;11349;53.412;-1.328;2023-04-02T08:14:54;15.38;;;3.15;;
22363;SDS011;11349;53.412;-1.328;2023-04-02T08:17:20;11.82;;;2.67;;
22363;SDS011;11349;53.412;-1.328;2023-04-02T08:19:48;17.73;;;2.88;;
22363;SDS011;11349;53.412;-1.328;2023-04-02T08:22:14;12.80;;;3.88;;
22363;SDS011;11349;53.412;-1.328;2023-04-02T08:24:40;13.85;;;2.30;;
22363;SDS011;11349;53.412;-1.328;2023-04-02T08:27:06;13.75;;;2.65;;
22363;SDS011;11349;53.412;-1.328;2023-04-02T08:29:32;12.27;;;2.80;;
22363;SDS011;11349;53.412;-1.328;2023-04-02T08:31:58;14.75;;;3.22;;
22363;SDS011;11349;53.412;-1.328;2023-04-02T08:34:25;13.55;;;2.72;;
22363;SDS011;11349;53.412;-1.328;2023-04-02T08:36:54;11.35;;;2.55;;
22363;SDS011;11349;53.412;-1.328;2023-04-02T08:39:21;10.75;;;2.47;;
22363;SDS011;11349;53.412;-1.328;2023-04-02T08:41:57;9.98;;;2.40;;
22363;SDS011;11349;53.412;-1.328;2023-04-02T08:44:35;13.77;;;2.80;;
22363;SDS011;11349;53.412;-1.328;2023-04-02T08:47:23;10.27;;;2.13;;
22363;SDS011;11349;53.412;-1.328;2023-04-02T08:49:58;7.63;;;1.80;;
22363;SDS011;11349;53.412;-1.328;2023-04-02T08:52:27;12.95;;;2.20;;
22363;SDS011;11349;53.412;-1.328;2023-04-02T08:54:56;11.32;;;2.03;;
22363;SDS011;11349;53.412;-1.328;2023-04-02T08:57:34;15.40;;;2.50;;
22363;SDS011;11349;53.412;-1.328;2023-04-02T09:02:44;14.55;;;2.50;;
22363;SDS011;11349;53.412;-1.328;2023-04-02T09:05:17;13.65;;;2.92;;
22363;SDS011;11349;53.412;-1.328;2023-04-02T09:07:50;11.48;;;2.35;;
22363;SDS011;11349;53.412;-1.328;2023-04-02T09:10:19;9.85;;;2.67;;
22363;SDS011;11349;53.412;-1.328;2023-04-02T09:12:50;12.45;;;3.25;;
22363;SDS011;11349;53.412;-1.328;2023-04-02T09:15:33;14.32;;;2.97;;
22363;SDS011;11349;53.412;-1.328;2023-04-02T09:18:18;15.05;;;2.90;;
22363;SDS011;11349;53.412;-1.328;2023-04-02T09:20:44;13.82;;;2.28;;
22363;SDS011;11349;53.412;-1.328;2023-04-02T09:23:16;12.88;;;2.85;;
22363;SDS011;11349;53.412;-1.328;2023-04-02T09:25:47;9.27;;;2.45;;
22363;SDS011;11349;53.412;-1.328;2023-04-02T09:28:15;11.27;;;2.20;;
22363;SDS011;11349;53.412;-1.328;2023-04-02T09:30:58;12.93;;;3.00;;
22363;SDS011;11349;53.412;-1.328;2023-04-02T09:33:43;8.85;;;2.10;;
22363;SDS011;11349;53.412;-1.328;2023-04-02T09:36:34;16.55;;;2.72;;
22363;SDS011;11349;53.412;-1.328;2023-04-02T09:39:21;12.57;;;3.92;;
22363;SDS011;11349;53.412;-1.328;2023-04-02T09:41:50;10.38;;;2.25;;
22363;SDS011;11349;53.412;-1.328;2023-04-02T09:46:51;14.02;;;2.42;;
22363;SDS011;11349;53.412;-1.328;2023-04-02T09:49:20;11.30;;;2.72;;
22363;SDS011;11349;53.412;-1.328;2023-04-02T09:52:06;11.10;;;2.30;;
22363;SDS011;11349;53.412;-1.328;2023-04-02T09:54:35;11.88;;;2.92;;
22363;SDS011;11349;53.412;-1.328;2023-04-02T09:57:18;10.60;;;3.08;;
22363;SDS011;11349;53.412;-1.328;2023-04-02T10:02:59;12.15;;;2.92;;
22363;SDS011;11349;53.412;-1.328;2023-04-02T10:06:06;18.50;;;3.80;;
22363;SDS011;11349;53.412;-1.328;2023-04-02T10:08:37;13.65;;;2.92;;
22363;SDS011;11349;53.412;-1.328;2023-04-02T10:11:09;12.25;;;2.60;;
22363;SDS011;11349;53.412;-1.328;2023-04-02T10:21:37;14.90;;;3.20;;
22363;SDS011;11349;53.412;-1.328;2023-04-02T10:24:12;14.25;;;3.20;;
22363;SDS011;11349;53.412;-1.328;2023-04-02T10:29:42;13.77;;;2.85;;
22363;SDS011;11349;53.412;-1.328;2023-04-02T10:32:19;12.57;;;3.17;;
22363;SDS011;11349;53.412;-1.328;2023-04-02T10:45:59;12.40;;;3.15;;
22363;SDS011;11349;53.412;-1.328;2023-04-02T10:56:51;13.38;;;2.33;;
22363;SDS011;11349;53.412;-1.328;2023-04-02T10:59:33;12.77;;;2.45;;
22363;SDS011;11349;53.412;-1.328;2023-04-02T11:02:03;11.10;;;2.45;;
22363;SDS011;11349;53.412;-1.328;2023-04-02T11:04:41;10.30;;;2.75;;
22363;SDS011;11349;53.412;-1.328;2023-04-02T11:07:14;13.38;;;2.45;;
22363;SDS011;11349;53.412;-1.328;2023-04-02T11:09:45;8.93;;;2.33;;
22363;SDS011;11349;53.412;-1.328;2023-04-02T11:12:17;8.60;;;2.20;;
22363;SDS011;11349;53.412;-1.328;2023-04-02T11:14:57;11.88;;;2.97;;
22363;SDS011;11349;53.412;-1.328;2023-04-02T11:17:25;13.18;;;2.80;;
22363;SDS011;11349;53.412;-1.328;2023-04-02T11:19:50;11.90;;;2.80;;
22363;SDS011;11349;53.412;-1.328;2023-04-02T11:22:22;12.68;;;2.53;;
22363;SDS011;11349;53.412;-1.328;2023-04-02T11:24:52;13.77;;;2.63;;
22363;SDS011;11349;53.412;-1.328;2023-04-02T11:27:27;11.98;;;3.25;;
22363;SDS011;11349;53.412;-1.328;2023-04-02T11:32:43;11.27;;;2.33;;
22363;SDS011;11349;53.412;-1.328;2023-04-02T11:35:34;12.45;;;2.20;;
22363;SDS011;11349;53.412;-1.328;2023-04-02T11:46:02;9.95;;;2.47;;
22363;SDS011;11349;53.412;-1.328;2023-04-02T11:48:31;14.77;;;2.22;;
22363;SDS011;11349;53.412;-1.328;2023-04-02T11:51:00;9.45;;;2.42;;
22363;SDS011;11349;53.412;-1.328;2023-04-02T11:53:36;10.18;;;2.47;;
22363;SDS011;11349;53.412;-1.328;2023-04-02T12:10:02;14.75;;;2.85;;
22363;SDS011;11349;53.412;-1.328;2023-04-02T12:12:45;10.05;;;2.38;;
22363;SDS011;11349;53.412;-1.328;2023-04-02T12:18:18;12.93;;;2.88;;
22363;SDS011;11349;53.412;-1.328;2023-04-02T12:20:51;14.05;;;2.53;;
22363;SDS011;11349;53.412;-1.328;2023-04-02T12:23:25;9.73;;;1.92;;
22363;SDS011;11349;53.412;-1.328;2023-04-02T12:26:02;9.35;;;2.53;;
22363;SDS011;11349;53.412;-1.328;2023-04-02T12:28:32;11.60;;;2.53;;
22363;SDS011;11349;53.412;-1.328;2023-04-02T12:31:03;16.65;;;3.85;;
22363;SDS011;11349;53.412;-1.328;2023-04-02T12:33:39;13.60;;;2.13;;
22363;SDS011;11349;53.412;-1.328;2023-04-02T12:38:46;10.43;;;2.40;;
22363;SDS011;11349;53.412;-1.328;2023-04-02T12:41:22;9.77;;;2.35;;
22363;SDS011;11349;53.412;-1.328;2023-04-02T12:44:01;10.85;;;2.55;;
22363;SDS011;11349;53.412;-1.328;2023-04-02T12:46:36;13.52;;;2.95;;
22363;SDS011;11349;53.412;-1.328;2023-04-02T12:51:28;12.07;;;2.60;;
22363;SDS011;11349;53.412;-1.328;2023-04-02T12:53:54;9.23;;;2.95;;
22363;SDS011;11349;53.412;-1.328;2023-04-02T12:56:21;10.10;;;2.60;;
22363;SDS011;11349;53.412;-1.328;2023-04-02T12:58:58;9.68;;;2.67;;
22363;SDS011;11349;53.412;-1.328;2023-04-02T13:01:25;11.52;;;2.20;;
22363;SDS011;11349;53.412;-1.328;2023-04-02T13:04:00;13.10;;;2.55;;
22363;SDS011;11349;53.412;-1.328;2023-04-02T13:06:28;12.95;;;2.53;;
22363;SDS011;11349;53.412;-1.328;2023-04-02T13:08:55;9.00;;;2.47;;
22363;SDS011;11349;53.412;-1.328;2023-04-02T13:11:21;12.20;;;2.65;;
22363;SDS011;11349;53.412;-1.328;2023-04-02T13:13:58;11.35;;;2.45;;
22363;SDS011;11349;53.412;-1.328;2023-04-02T13:16:27;13.98;;;2.65;;
22363;SDS011;11349;53.412;-1.328;2023-04-02T13:21:45;11.07;;;2.78;;
22363;SDS011;11349;53.412;-1.328;2023-04-02T13:24:17;10.05;;;3.80;;
22363;SDS011;11349;53.412;-1.328;2023-04-02T13:26:48;12.82;;;3.15;;
22363;SDS011;11349;53.412;-1.328;2023-04-02T13:31:46;12.18;;;2.72;;
22363;SDS011;11349;53.412;-1.328;2023-04-02T13:34:12;11.50;;;3.25;;
22363;SDS011;11349;53.412;-1.328;2023-04-02T13:36:38;9.88;;;2.30;;
22363;SDS011;11349;53.412;-1.328;2023-04-02T13:39:04;16.30;;;2.28;;
22363;SDS011;11349;53.412;-1.328;2023-04-02T13:41:31;10.23;;;2.58;;
22363;SDS011;11349;53.412;-1.328;2023-04-02T13:44:01;9.55;;;2.60;;
22363;SDS011;11349;53.412;-1.328;2023-04-02T13:46:28;12.32;;;2.63;;
22363;SDS011;11349;53.412;-1.328;2023-04-02T13:48:57;10.07;;;2.65;;
22363;SDS011;11349;53.412;-1.328;2023-04-02T13:51:30;14.88;;;3.40;;
22363;SDS011;11349;53.412;-1.328;2023-04-02T13:54:01;13.13;;;2.67;;
22363;SDS011;11349;53.412;-1.328;2023-04-02T13:56:31;10.95;;;3.65;;
22363;SDS011;11349;53.412;-1.328;2023-04-02T13:58:57;9.98;;;3.65;;
22363;SDS011;11349;53.412;-1.328;2023-04-02T14:01:23;10.95;;;2.72;;
22363;SDS011;11349;53.412;-1.328;2023-04-02T14:03:50;11.18;;;2.90;;
22363;SDS011;11349;53.412;-1.328;2023-04-02T14:09:18;10.02;;;3.00;;
22363;SDS011;11349;53.412;-1.328;2023-04-02T14:20:29;12.63;;;3.58;;
22363;SDS011;11349;53.412;-1.328;2023-04-02T14:23:05;9.90;;;2.45;;
22363;SDS011;11349;53.412;-1.328;2023-04-02T14:39:23;13.27;;;2.85;;
22363;SDS011;11349;53.412;-1.328;2023-04-02T14:42:18;12.43;;;2.25;;
22363;SDS011;11349;53.412;-1.328;2023-04-02T14:45:13;9.68;;;2.83;;
22363;SDS011;11349;53.412;-1.328;2023-04-02T14:48:04;11.85;;;2.78;;
22363;SDS011;11349;53.412;-1.328;2023-04-02T14:50:52;19.10;;;3.92;;
22363;SDS011;11349;53.412;-1.328;2023-04-02T14:53:25;9.38;;;2.83;;
22363;SDS011;11349;53.412;-1.328;2023-04-02T14:56:01;8.30;;;2.53;;
22363;SDS011;11349;53.412;-1.328;2023-04-02T14:58:32;7.53;;;2.67;;
22363;SDS011;11349;53.412;-1.328;2023-04-02T15:01:08;7.28;;;2.40;;
22363;SDS011;11349;53.412;-1.328;2023-04-02T15:03:53;7.57;;;2.97;;
22363;SDS011;11349;53.412;-1.328;2023-04-02T15:06:52;8.40;;;2.10;;
22363;SDS011;11349;53.412;-1.328;2023-04-02T15:12:17;8.32;;;2.67;;
22363;SDS011;11349;53.412;-1.328;2023-04-02T15:14:49;9.48;;;2.03;;
22363;SDS011;11349;53.412;-1.328;2023-04-02T15:17:20;10.30;;;2.30;;
22363;SDS011;11349;53.412;-1.328;2023-04-02T15:19:48;12.38;;;2.78;;
22363;SDS011;11349;53.412;-1.328;2023-04-02T15:22:33;11.80;;;2.90;;
22363;SDS011;11349;53.412;-1.328;2023-04-02T15:27:58;8.80;;;2.30;;
22363;SDS011;11349;53.412;-1.328;2023-04-02T15:30:29;5.57;;;1.70;;
22363;SDS011;11349;53.412;-1.328;2023-04-02T15:35:52;14.02;;;3.25;;
22363;SDS011;11349;53.412;-1.328;2023-04-02T15:38:37;5.85;;;2.30;;
22363;SDS011;11349;53.412;-1.328;2023-04-02T15:52:15;7.80;;;2.50;;
22363;SDS011;11349;53.412;-1.328;2023-04-02T16:03:19;9.93;;;2.55;;
22363;SDS011;11349;53.412;-1.328;2023-04-02T16:11:35;8.13;;;2.22;;
22363;SDS011;11349;53.412;-1.328;2023-04-02T16:14:08;6.90;;;2.13;;
22363;SDS011;11349;53.412;-1.328;2023-04-02T16:16:39;6.35;;;2.10;;
22363;SDS011;11349;53.412;-1.328;2023-04-02T16:24:47;7.65;;;2.17;;
22363;SDS011;11349;53.412;-1.328;2023-04-02T16:30:06;6.30;;;2.03;;
22363;SDS011;11349;53.412;-1.328;2023-04-02T16:40:28;12.63;;;2.13;;
22363;SDS011;11349;53.412;-1.328;2023-04-02T17:16:02;9.50;;;2.42;;
22363;SDS011;11349;53.412;-1.328;2023-04-02T17:18:41;6.88;;;2.20;;
22363;SDS011;11349;53.412;-1.328;2023-04-02T17:21:11;11.07;;;2.03;;
22363;SDS011;11349;53.412;-1.328;2023-04-02T17:23:57;8.98;;;1.85;;
22363;SDS011;11349;53.412;-1.328;2023-04-02T17:26:31;10.25;;;2.65;;
22363;SDS011;11349;53.412;-1.328;2023-04-02T17:29:03;11.50;;;2.72;;
22363;SDS011;11349;53.412;-1.328;2023-04-02T17:31:32;9.52;;;2.60;;
22363;SDS011;11349;53.412;-1.328;2023-04-02T17:34:01;9.05;;;2.17;;
22363;SDS011;11349;53.412;-1.328;2023-04-02T17:42:34;9.90;;;3.08;;
22363;SDS011;11349;53.412;-1.328;2023-04-02T17:45:23;7.28;;;2.22;;
22363;SDS011;11349;53.412;-1.328;2023-04-02T17:51:28;9.02;;;2.42;;
22363;SDS011;11349;53.412;-1.328;2023-04-02T17:59:52;8.57;;;2.45;;
22363;SDS011;11349;53.412;-1.328;2023-04-02T18:02:26;10.90;;;2.45;;
22363;SDS011;11349;53.412;-1.328;2023-04-02T18:10:44;10.60;;;2.70;;
22363;SDS011;11349;53.412;-1.328;2023-04-02T18:34:48;9.20;;;3.75;;
22363;SDS011;11349;53.412;-1.328;2023-04-02T18:40:14;19.50;;;8.07;;
22363;SDS011;11349;53.412;-1.328;2023-04-02T18:51:27;8.32;;;3.80;;
22363;SDS011;11349;53.412;-1.328;2023-04-02T18:56:51;16.13;;;6.40;;
22363;SDS011;11349;53.412;-1.328;2023-04-02T19:00:04;27.65;;;12.77;;
22363;SDS011;11349;53.412;-1.328;2023-04-02T19:05:38;16.13;;;7.97;;
22363;SDS011;11349;53.412;-1.328;2023-04-02T19:08:26;21.60;;;8.45;;
22363;SDS011;11349;53.412;-1.328;2023-04-02T19:10:59;13.05;;;5.88;;
22363;SDS011;11349;53.412;-1.328;2023-04-02T19:13:29;10.43;;;4.47;;
22363;SDS011;11349;53.412;-1.328;2023-04-02T19:16:07;15.02;;;7.70;;
22363;SDS011;11349;53.412;-1.328;2023-04-02T19:32:32;9.73;;;3.88;;
22363;SDS011;11349;53.412;-1.328;2023-04-02T19:43:08;8.43;;;2.70;;
22363;SDS011;11349;53.412;-1.328;2023-04-02T19:45:36;8.05;;;2.13;;
22363;SDS011;11349;53.412;-1.328;2023-04-02T19:48:10;7.05;;;2.40;;
22363;SDS011;11349;53.412;-1.328;2023-04-02T19:50:37;7.90;;;2.92;;
22363;SDS011;11349;53.412;-1.328;2023-04-02T19:53:03;6.80;;;2.45;;
22363;SDS011;11349;53.412;-1.328;2023-04-02T19:55:29;8.30;;;4.00;;
22363;SDS011;11349;53.412;-1.328;2023-04-02T19:57:55;8.73;;;2.88;;
22363;SDS011;11349;53.412;-1.328;2023-04-02T20:00:20;8.93;;;2.50;;
22363;SDS011;11349;53.412;-1.328;2023-04-02T20:02:46;6.07;;;2.97;;
22363;SDS011;11349;53.412;-1.328;2023-04-02T20:05:12;9.00;;;2.85;;
22363;SDS011;11349;53.412;-1.328;2023-04-02T20:07:38;9.13;;;2.63;;
22363;SDS011;11349;53.412;-1.328;2023-04-02T20:10:04;6.65;;;3.05;;
22363;SDS011;11349;53.412;-1.328;2023-04-02T20:12:30;5.93;;;3.30;;
22363;SDS011;11349;53.412;-1.328;2023-04-02T20:14:56;10.13;;;2.63;;
22363;SDS011;11349;53.412;-1.328;2023-04-02T20:17:21;9.77;;;4.18;;
22363;SDS011;11349;53.412;-1.328;2023-04-02T20:19:47;8.00;;;2.72;;
22363;SDS011;11349;53.412;-1.328;2023-04-02T20:22:13;9.07;;;2.80;;
22363;SDS011;11349;53.412;-1.328;2023-04-02T20:24:38;7.93;;;2.75;;
22363;SDS011;11349;53.412;-1.328;2023-04-02T20:27:06;10.48;;;2.60;;
22363;SDS011;11349;53.412;-1.328;2023-04-02T20:29:32;10.50;;;2.97;;
22363;SDS011;11349;53.412;-1.328;2023-04-02T20:31:58;7.65;;;2.63;;
22363;SDS011;11349;53.412;-1.328;2023-04-02T20:34:23;9.10;;;2.38;;
22363;SDS011;11349;53.412;-1.328;2023-04-02T20:36:49;7.53;;;3.17;;
22363;SDS011;11349;53.412;-1.328;2023-04-02T20:39:15;9.32;;;2.25;;
22363;SDS011;11349;53.412;-1.328;2023-04-02T20:41:45;6.40;;;2.70;;
22363;SDS011;11349;53.412;-1.328;2023-04-02T20:44:11;7.25;;;2.28;;
22363;SDS011;11349;53.412;-1.328;2023-04-02T20:46:37;7.30;;;2.65;;
22363;SDS011;11349;53.412;-1.328;2023-04-02T20:49:04;7.18;;;2.58;;
22363;SDS011;11349;53.412;-1.328;2023-04-02T20:51:29;6.60;;;2.30;;
22363;SDS011;11349;53.412;-1.328;2023-04-02T20:53:56;11.15;;;2.65;;
22363;SDS011;11349;53.412;-1.328;2023-04-02T20:56:22;5.20;;;2.00;;
22363;SDS011;11349;53.412;-1.328;2023-04-02T20:58:48;7.60;;;2.88;;